createdAt,value
2022-11-16T00:01:20.189Z,72.00
2022-11-16T00:03:49.063Z,74.78
2022-11-16T00:06:16.616Z,72.47
2022-11-16T00:09:06.930Z,69.40
2022-11-16T00:11:34.913Z,76.10
2022-11-16T00:14:02.642Z,80.20
2022-11-16T00:16:30.394Z,76.15
2022-11-16T00:19:00.024Z,75.18
2022-11-16T00:21:30.980Z,83.95
2022-11-16T00:23:58.827Z,73.97
2022-11-16T00:26:27.140Z,77.15
2022-11-16T00:28:55.647Z,72.95
2022-11-16T00:31:24.485Z,71.18
2022-11-16T00:33:52.705Z,76.00
2022-11-16T00:36:20.355Z,79.13
2022-11-16T00:38:48.534Z,77.18
2022-11-16T00:41:16.317Z,78.30
2022-11-16T00:43:44.210Z,68.60
2022-11-16T00:46:11.818Z,71.10
2022-11-16T00:48:39.333Z,73.85
2022-11-16T00:51:07.160Z,74.63
2022-11-16T00:53:36.282Z,82.22
2022-11-16T00:56:04.492Z,70.13
2022-11-16T00:58:37.566Z,76.47
2022-11-16T01:01:10.505Z,77.05
2022-11-16T01:03:38.970Z,76.85
2022-11-16T01:06:10.348Z,75.03
2022-11-16T01:08:39.386Z,79.35
2022-11-16T01:11:26.806Z,72.25
2022-11-16T01:13:55.881Z,72.80
2022-11-16T01:16:24.414Z,65.95
2022-11-16T01:18:53.675Z,67.53
2022-11-16T01:21:22.062Z,72.30
2022-11-16T01:23:50.033Z,67.47
2022-11-16T01:26:18.236Z,69.68
2022-11-16T01:28:45.941Z,78.95
2022-11-16T01:31:15.152Z,76.65
2022-11-16T01:33:43.062Z,70.20
2022-11-16T01:36:20.448Z,67.70
2022-11-16T01:38:48.539Z,69.28
2022-11-16T01:41:22.357Z,70.15
2022-11-16T01:43:56.490Z,66.15
2022-11-16T01:46:30.204Z,63.17
2022-11-16T01:49:05.937Z,59.70
2022-11-16T01:51:35.077Z,64.65
2022-11-16T01:54:06.897Z,64.03
2022-11-16T01:56:38.413Z,62.55
2022-11-16T01:59:12.341Z,68.50
2022-11-16T02:01:40.831Z,69.35
2022-11-16T02:04:12.088Z,68.00
2022-11-16T02:06:55.570Z,67.25
2022-11-16T02:09:55.322Z,65.10
2022-11-16T02:12:47.052Z,56.45
2022-11-16T02:15:21.264Z,55.45
2022-11-16T02:18:14.829Z,55.42
2022-11-16T02:21:03.456Z,58.03
2022-11-16T02:24:09.043Z,55.22
2022-11-16T02:26:45.988Z,55.95
2022-11-16T02:29:30.492Z,52.05
2022-11-16T02:32:17.601Z,55.92
2022-11-16T02:34:56.841Z,56.50
2022-11-16T02:37:27.592Z,68.63
2022-11-16T02:39:59.925Z,57.30
2022-11-16T02:42:38.403Z,62.53
2022-11-16T02:45:10.067Z,60.50
2022-11-16T02:47:40.774Z,54.53
2022-11-16T02:50:14.361Z,56.28
2022-11-16T02:52:42.301Z,56.50
2022-11-16T02:55:12.610Z,56.17
2022-11-16T02:57:51.997Z,52.70
2022-11-16T03:00:36.463Z,51.85
2022-11-16T03:03:10.349Z,51.90
2022-11-16T03:05:47.430Z,53.50
2022-11-16T03:08:29.129Z,54.20
2022-11-16T03:11:25.466Z,52.47
2022-11-16T03:14:07.986Z,47.53
2022-11-16T03:16:43.985Z,53.03
2022-11-16T03:19:16.392Z,49.20
2022-11-16T03:21:48.604Z,49.92
2022-11-16T03:24:16.947Z,50.22
2022-11-16T03:26:53.729Z,48.15
2022-11-16T03:29:30.618Z,48.55
2022-11-16T03:32:16.753Z,42.90
2022-11-16T03:34:56.860Z,41.88
2022-11-16T03:37:26.509Z,45.65
2022-11-16T03:39:55.900Z,48.83
2022-11-16T03:42:26.705Z,52.03
2022-11-16T03:44:56.010Z,51.05
2022-11-16T03:47:24.024Z,47.30
2022-11-16T03:49:51.999Z,59.10
2022-11-16T03:52:21.146Z,49.40
2022-11-16T03:54:51.067Z,53.58
2022-11-16T03:57:19.680Z,50.53
2022-11-16T03:59:54.269Z,50.55
2022-11-16T04:02:21.873Z,52.45
2022-11-16T04:05:10.290Z,52.15
2022-11-16T04:07:56.469Z,48.90
2022-11-16T04:10:42.845Z,52.33
2022-11-16T04:13:31.794Z,51.33
2022-11-16T04:16:17.978Z,48.70
2022-11-16T04:19:04.660Z,49.70
2022-11-16T04:21:56.662Z,50.05
2022-11-16T04:24:31.859Z,50.70
2022-11-16T04:27:23.367Z,44.95
2022-11-16T04:29:51.792Z,50.38
2022-11-16T04:32:38.223Z,52.63
2022-11-16T04:35:24.733Z,49.33
2022-11-16T04:37:53.581Z,44.35
2022-11-16T04:40:29.740Z,48.58
2022-11-16T04:43:01.230Z,48.45
2022-11-16T04:45:52.061Z,48.97
2022-11-16T04:48:22.959Z,48.15
2022-11-16T04:50:53.900Z,49.35
2022-11-16T04:53:24.115Z,46.30
2022-11-16T04:56:01.004Z,45.15
2022-11-16T04:58:30.391Z,51.40
2022-11-16T05:00:59.799Z,51.25
2022-11-16T05:03:28.008Z,50.03
2022-11-16T05:05:56.602Z,47.97
2022-11-16T05:08:25.942Z,48.55
2022-11-16T05:10:55.195Z,46.35
2022-11-16T05:13:23.297Z,53.85
2022-11-16T05:15:52.335Z,49.13
2022-11-16T05:18:20.338Z,44.33
2022-11-16T05:21:04.516Z,44.70
2022-11-16T05:23:56.934Z,42.17
2022-11-16T05:26:28.890Z,45.53
2022-11-16T05:28:57.073Z,42.08
2022-11-16T05:31:24.955Z,43.63
2022-11-16T05:33:53.698Z,44.03
2022-11-16T05:36:21.368Z,47.15
2022-11-16T05:38:55.975Z,50.10
2022-11-16T05:41:26.546Z,42.67
2022-11-16T05:43:55.875Z,45.42
2022-11-16T05:46:24.845Z,47.17
2022-11-16T05:51:22.785Z,49.53
2022-11-16T05:53:50.508Z,49.58
2022-11-16T05:56:22.677Z,47.95
2022-11-16T05:58:52.458Z,52.22
2022-11-16T06:01:21.019Z,52.83
2022-11-16T06:03:50.392Z,51.25
2022-11-16T06:06:20.325Z,48.47
2022-11-16T06:08:51.535Z,48.10
2022-11-16T06:11:32.805Z,51.05
2022-11-16T06:14:06.054Z,53.78
2022-11-16T06:16:35.460Z,57.70
2022-11-16T06:19:07.184Z,52.30
2022-11-16T06:21:35.105Z,54.28
2022-11-16T06:24:09.361Z,56.15
2022-11-16T06:26:37.760Z,55.53
2022-11-16T06:29:06.675Z,49.28
2022-11-16T06:31:36.001Z,50.23
2022-11-16T06:34:04.618Z,49.38
2022-11-16T06:36:32.207Z,47.38
2022-11-16T06:39:04.290Z,45.17
2022-11-16T06:41:41.106Z,50.22
2022-11-16T06:44:10.704Z,55.25
2022-11-16T06:46:42.485Z,52.28
2022-11-16T06:49:10.393Z,50.28
2022-11-16T06:51:38.204Z,48.42
2022-11-16T06:54:06.721Z,53.17
2022-11-16T06:56:35.590Z,50.85
2022-11-16T06:59:03.344Z,43.42
2022-11-16T07:01:32.475Z,44.58
2022-11-16T07:04:05.461Z,44.28
2022-11-16T07:06:33.846Z,46.17
2022-11-16T07:09:01.424Z,45.05
2022-11-16T07:14:01.129Z,36.88
2022-11-16T07:16:30.190Z,37.90
2022-11-16T07:19:02.591Z,34.78
2022-11-16T07:21:32.773Z,36.72
2022-11-16T07:24:04.095Z,34.83
2022-11-16T07:26:33.861Z,33.72
2022-11-16T07:29:16.404Z,34.35
2022-11-16T07:32:02.605Z,34.70
2022-11-16T07:34:50.432Z,35.40
2022-11-16T07:37:18.353Z,34.90
2022-11-16T07:39:46.048Z,35.33
2022-11-16T07:42:16.573Z,37.83
2022-11-16T07:44:52.587Z,34.22
2022-11-16T07:47:20.736Z,37.30
2022-11-16T07:49:50.332Z,35.05
2022-11-16T07:52:24.739Z,38.42
2022-11-16T07:55:13.829Z,38.78
2022-11-16T07:57:42.770Z,35.65
2022-11-16T08:00:11.469Z,40.13
2022-11-16T08:02:45.737Z,38.42
2022-11-16T08:05:18.835Z,39.67
2022-11-16T08:07:51.161Z,44.53
2022-11-16T08:10:23.874Z,40.20
2022-11-16T08:12:52.084Z,34.33
2022-11-16T08:15:21.354Z,36.08
2022-11-16T08:17:49.624Z,37.63
2022-11-16T08:20:18.446Z,36.90
2022-11-16T08:22:49.776Z,39.67
2022-11-16T08:25:18.941Z,45.00
2022-11-16T08:27:48.182Z,41.45
2022-11-16T08:30:21.404Z,33.58
2022-11-16T08:32:49.998Z,38.55
2022-11-16T08:35:18.033Z,37.75
2022-11-16T08:37:46.970Z,35.03
2022-11-16T08:40:15.489Z,36.85
2022-11-16T08:42:44.852Z,33.65
2022-11-16T08:45:13.888Z,30.08
2022-11-16T08:47:43.255Z,30.27
2022-11-16T08:50:11.533Z,26.92
2022-11-16T08:52:39.963Z,24.98
2022-11-16T08:55:08.676Z,22.88
2022-11-16T08:57:36.916Z,24.48
2022-11-16T09:00:10.228Z,29.73
2022-11-16T09:02:38.836Z,27.98
2022-11-16T09:05:08.147Z,25.48
2022-11-16T09:07:35.905Z,26.48
2022-11-16T09:10:04.114Z,25.17
2022-11-16T09:12:31.796Z,26.50
2022-11-16T09:14:59.709Z,21.00
2022-11-16T09:17:27.347Z,19.25
2022-11-16T09:19:55.421Z,18.67
2022-11-16T09:22:23.211Z,18.90
2022-11-16T09:24:50.990Z,17.58
2022-11-16T09:27:19.074Z,19.05
2022-11-16T09:29:46.908Z,18.83
2022-11-16T09:32:14.813Z,17.55
2022-11-16T09:34:43.218Z,17.23
2022-11-16T09:37:11.335Z,18.35
2022-11-16T09:39:39.769Z,18.45
2022-11-16T09:42:33.171Z,18.75
2022-11-16T09:45:08.752Z,17.35
2022-11-16T09:47:50.304Z,19.80
2022-11-16T09:50:47.285Z,17.02
2022-11-16T09:53:25.714Z,19.90
2022-11-16T09:55:57.872Z,18.02
2022-11-16T09:58:34.707Z,18.00
2022-11-16T10:03:50.683Z,18.80
2022-11-16T10:06:23.208Z,18.85
2022-11-16T10:08:53.955Z,19.60
2022-11-16T10:11:31.615Z,19.48
2022-11-16T10:14:38.556Z,18.77
2022-11-16T10:17:58.088Z,16.98
2022-11-16T10:20:44.222Z,16.27
2022-11-16T10:23:27.112Z,16.25
2022-11-16T10:26:19.587Z,16.50
2022-11-16T10:28:59.843Z,13.60
2022-11-16T10:31:57.433Z,15.07
2022-11-16T10:34:57.084Z,16.52
2022-11-16T10:37:30.477Z,14.67
2022-11-16T10:39:58.706Z,13.65
2022-11-16T10:42:32.781Z,13.68
2022-11-16T10:45:15.936Z,14.00
2022-11-16T10:47:52.512Z,15.02
2022-11-16T10:50:32.617Z,15.30
2022-11-16T10:53:01.508Z,14.02
2022-11-16T10:55:29.330Z,12.75
2022-11-16T10:58:05.644Z,12.50
2022-11-16T11:00:55.449Z,16.55
2022-11-16T11:03:33.406Z,15.55
2022-11-16T11:06:01.877Z,14.55
2022-11-16T11:08:31.999Z,13.18
2022-11-16T11:13:35.355Z,14.63
2022-11-16T11:16:18.303Z,15.45
2022-11-16T11:18:46.287Z,18.10
2022-11-16T11:21:26.484Z,18.92
2022-11-16T11:24:10.660Z,16.00
2022-11-16T11:26:51.845Z,19.02
2022-11-16T11:29:40.362Z,20.40
2022-11-16T11:32:20.780Z,21.05
2022-11-16T11:34:54.591Z,25.52
2022-11-16T11:37:28.559Z,27.58
2022-11-16T11:40:25.977Z,22.15
2022-11-16T11:43:04.936Z,21.40
2022-11-16T11:45:45.611Z,18.85
2022-11-16T11:51:11.426Z,14.82
2022-11-16T11:53:54.618Z,15.70
2022-11-16T11:56:24.068Z,17.13
2022-11-16T11:58:52.891Z,15.52
2022-11-16T12:01:47.801Z,16.92
2022-11-16T12:04:33.694Z,17.08
2022-11-16T12:07:25.747Z,17.52
2022-11-16T12:10:32.058Z,16.83
2022-11-16T12:13:34.412Z,15.32
2022-11-16T12:16:29.175Z,17.98
2022-11-16T12:19:31.879Z,15.60
2022-11-16T12:22:30.765Z,17.13
2022-11-16T12:25:27.367Z,18.58
2022-11-16T12:28:17.172Z,20.38
2022-11-16T12:31:06.843Z,18.50
2022-11-16T12:33:44.488Z,19.27
2022-11-16T12:36:28.129Z,18.45
2022-11-16T12:39:13.702Z,18.08
2022-11-16T12:42:17.761Z,16.60
2022-11-16T12:45:32.432Z,17.63
2022-11-16T12:48:44.836Z,17.65
2022-11-16T12:51:25.292Z,14.20
2022-11-16T12:54:29.157Z,13.40
2022-11-16T12:57:12.085Z,17.85
2022-11-16T12:59:54.421Z,15.57
2022-11-16T13:02:37.185Z,20.50
2022-11-16T13:05:15.805Z,17.73
2022-11-16T13:07:51.214Z,18.83
2022-11-16T13:10:36.971Z,22.75
2022-11-16T13:13:35.345Z,20.05
2022-11-16T13:16:06.884Z,21.05
2022-11-16T13:18:39.303Z,26.80
2022-11-16T13:21:25.945Z,20.02
2022-11-16T13:24:24.635Z,23.13
2022-11-16T13:27:28.751Z,22.00
2022-11-16T13:30:00.070Z,25.52
2022-11-16T13:32:36.807Z,23.13
2022-11-16T13:35:07.233Z,25.02
2022-11-16T13:40:07.497Z,24.77
2022-11-16T13:43:07.181Z,25.30
2022-11-16T13:45:53.904Z,23.45
2022-11-16T13:48:25.358Z,22.00
2022-11-16T13:50:56.032Z,22.27
2022-11-16T13:56:25.636Z,27.27
2022-11-16T13:58:57.605Z,25.05
2022-11-16T14:01:26.818Z,20.83
2022-11-16T14:04:33.351Z,24.15
2022-11-16T14:07:01.278Z,25.95
2022-11-16T14:09:44.008Z,24.67
2022-11-16T14:18:55.300Z,27.52
2022-11-16T14:21:27.037Z,25.20
2022-11-16T14:24:26.589Z,28.80
2022-11-16T14:27:13.508Z,28.77
2022-11-16T14:29:56.301Z,28.25
2022-11-16T14:32:27.394Z,27.90
2022-11-16T14:34:57.948Z,29.55
2022-11-16T14:37:25.871Z,27.63
2022-11-16T14:40:04.634Z,24.05
2022-11-16T14:43:09.409Z,28.95
2022-11-16T14:45:36.236Z,30.85
2022-11-16T14:48:15.671Z,29.45
2022-11-16T14:50:46.567Z,27.63
2022-11-16T14:53:20.689Z,28.63
2022-11-16T14:55:49.671Z,26.38
2022-11-16T14:58:19.133Z,29.40
2022-11-16T15:00:59.568Z,25.50
2022-11-16T15:03:31.563Z,25.63
2022-11-16T15:06:04.870Z,25.05
2022-11-16T15:08:50.478Z,25.50
2022-11-16T15:11:51.707Z,23.73
2022-11-16T15:14:37.658Z,23.45
2022-11-16T15:17:10.365Z,26.35
2022-11-16T15:19:38.308Z,25.98
2022-11-16T15:22:18.854Z,23.80
2022-11-16T15:27:31.182Z,22.00
2022-11-16T15:30:13.233Z,21.33
2022-11-16T15:32:43.319Z,27.77
2022-11-16T15:35:38.736Z,29.45
2022-11-16T15:38:23.282Z,30.02
2022-11-16T15:40:53.408Z,26.67
2022-11-16T15:44:01.303Z,19.42
2022-11-16T15:46:35.567Z,21.42
2022-11-16T15:49:05.025Z,28.15
2022-11-16T15:51:32.922Z,22.50
2022-11-16T15:54:16.318Z,23.55
2022-11-16T15:56:44.537Z,22.08
2022-11-16T15:59:19.852Z,22.42
2022-11-16T16:01:48.484Z,19.67
2022-11-16T16:04:18.654Z,19.30
2022-11-16T16:06:55.512Z,18.42
2022-11-16T16:09:31.591Z,20.25
2022-11-16T16:12:18.584Z,20.58
2022-11-16T16:14:48.966Z,20.90
2022-11-16T16:20:01.935Z,21.42
2022-11-16T16:22:38.915Z,21.77
2022-11-16T16:25:26.692Z,24.17
2022-11-16T16:27:55.665Z,25.77
2022-11-16T16:30:24.249Z,26.25
2022-11-16T16:32:55.613Z,24.88
2022-11-16T16:35:25.695Z,23.40
2022-11-16T16:38:01.631Z,31.90
2022-11-16T16:40:30.300Z,34.25
2022-11-16T16:42:59.273Z,45.92
2022-11-16T16:45:41.714Z,42.45
2022-11-16T16:48:12.200Z,38.55
2022-11-16T16:53:12.763Z,24.60
2022-11-16T16:55:42.815Z,27.70
2022-11-16T16:58:15.513Z,26.33
2022-11-16T17:00:43.723Z,27.30
2022-11-16T17:03:11.724Z,24.83
2022-11-16T17:05:40.099Z,24.85
2022-11-16T17:08:08.354Z,22.58
2022-11-16T17:10:38.827Z,22.10
2022-11-16T17:13:09.229Z,21.38
2022-11-16T17:18:05.484Z,18.60
2022-11-16T17:20:33.745Z,21.48
2022-11-16T17:23:03.301Z,19.75
2022-11-16T17:25:33.870Z,20.50
2022-11-16T17:28:03.071Z,23.23
2022-11-16T17:30:32.265Z,20.25
2022-11-16T17:33:00.254Z,22.85
2022-11-16T17:35:28.536Z,22.05
2022-11-16T17:37:59.044Z,22.05
2022-11-16T17:40:27.099Z,21.45
2022-11-16T17:42:55.422Z,25.52
2022-11-16T17:45:23.407Z,21.98
2022-11-16T17:47:51.555Z,23.88
2022-11-16T17:50:19.414Z,21.73
2022-11-16T17:52:47.378Z,23.17
2022-11-16T17:55:16.742Z,21.23
2022-11-16T17:57:44.671Z,21.58
2022-11-16T18:00:13.083Z,24.90
2022-11-16T18:02:42.084Z,25.25
2022-11-16T18:05:11.233Z,26.52
2022-11-16T18:07:40.676Z,31.90
2022-11-16T18:10:09.045Z,27.50
2022-11-16T18:12:39.070Z,27.85
2022-11-16T18:15:27.327Z,31.27
2022-11-16T18:17:56.692Z,32.22
2022-11-16T18:20:24.639Z,38.50
2022-11-16T18:22:53.183Z,48.95
2022-11-16T18:25:21.294Z,148.27
2022-11-16T18:27:56.501Z,106.63
2022-11-16T18:30:25.478Z,85.97
2022-11-16T18:32:55.189Z,155.00
2022-11-16T18:35:24.159Z,166.82
2022-11-16T18:37:52.278Z,110.57
2022-11-16T18:40:21.212Z,103.53
2022-11-16T18:42:49.744Z,81.00
2022-11-16T18:45:21.155Z,136.70
2022-11-16T18:47:52.574Z,102.38
2022-11-16T18:50:26.714Z,81.60
2022-11-16T18:52:57.108Z,71.53
2022-11-16T18:55:25.509Z,62.47
2022-11-16T18:57:54.040Z,58.90
2022-11-16T19:00:22.664Z,60.33
2022-11-16T19:02:50.790Z,60.15
2022-11-16T19:05:18.710Z,57.17
2022-11-16T19:07:47.924Z,56.92
2022-11-16T19:10:15.747Z,56.80
2022-11-16T19:12:43.885Z,55.25
2022-11-16T19:15:11.926Z,58.00
2022-11-16T19:17:59.318Z,60.75
2022-11-16T19:20:28.325Z,53.63
2022-11-16T19:22:57.738Z,54.63
2022-11-16T19:25:26.181Z,51.42
2022-11-16T19:27:56.506Z,61.83
2022-11-16T19:30:24.693Z,225.15
2022-11-16T19:32:57.407Z,72.13
2022-11-16T19:35:26.050Z,89.05
2022-11-16T19:37:54.749Z,125.38
2022-11-16T19:40:25.189Z,71.43
2022-11-16T19:42:54.737Z,84.18
2022-11-16T19:45:22.667Z,68.18
2022-11-16T19:47:50.797Z,63.35
2022-11-16T19:50:18.887Z,69.00
2022-11-16T19:52:46.804Z,72.28
2022-11-16T19:55:16.138Z,72.90
2022-11-16T19:57:44.058Z,74.00
2022-11-16T20:00:12.765Z,69.22
2022-11-16T20:02:40.595Z,58.63
2022-11-16T20:05:09.859Z,66.22
2022-11-16T20:07:39.350Z,63.08
2022-11-16T20:10:07.985Z,55.03
2022-11-16T20:12:35.876Z,61.53
2022-11-16T20:15:05.561Z,60.20
2022-11-16T20:17:33.728Z,52.87
2022-11-16T20:20:03.169Z,54.20
2022-11-16T20:22:31.337Z,57.80
2022-11-16T20:24:59.549Z,81.63
2022-11-16T20:27:27.988Z,99.65
2022-11-16T20:29:55.746Z,64.75
2022-11-16T20:32:24.365Z,64.80
2022-11-16T20:34:52.131Z,61.28
2022-11-16T20:37:21.319Z,53.58
2022-11-16T20:39:52.899Z,55.70
2022-11-16T20:42:20.707Z,55.22
2022-11-16T20:44:48.266Z,58.63
2022-11-16T20:47:16.433Z,62.03
2022-11-16T20:49:44.825Z,59.53
2022-11-16T20:52:12.726Z,54.53
2022-11-16T20:54:40.684Z,51.55
2022-11-16T20:57:08.483Z,59.75
2022-11-16T20:59:36.219Z,52.22
2022-11-16T21:02:03.880Z,47.42
2022-11-16T21:04:32.387Z,41.22
2022-11-16T21:07:00.556Z,44.03
2022-11-16T21:09:49.010Z,38.70
2022-11-16T21:12:40.056Z,42.85
2022-11-16T21:15:10.942Z,38.88
2022-11-16T21:17:39.416Z,39.58
2022-11-16T21:22:56.075Z,53.55
2022-11-16T21:25:24.225Z,52.42
2022-11-16T21:27:52.001Z,51.85
2022-11-16T21:30:20.266Z,53.42
2022-11-16T21:32:48.570Z,54.05
2022-11-16T21:35:16.840Z,51.20
2022-11-16T21:37:44.592Z,53.60
2022-11-16T21:40:14.808Z,53.45
2022-11-16T21:42:43.715Z,52.17
2022-11-16T21:45:11.873Z,49.85
2022-11-16T21:47:40.487Z,52.78
2022-11-16T21:50:30.447Z,38.70
2022-11-16T21:52:57.457Z,39.20
2022-11-16T21:55:25.177Z,39.53
2022-11-16T21:57:53.255Z,34.35
2022-11-16T22:00:21.047Z,32.10
2022-11-16T22:02:48.636Z,50.17
2022-11-16T22:05:35.079Z,26.77
2022-11-16T22:08:07.878Z,33.85
2022-11-16T22:10:36.010Z,29.17
2022-11-16T22:13:04.077Z,26.05
2022-11-16T22:15:32.157Z,24.50
2022-11-16T22:17:59.838Z,19.73
2022-11-16T22:20:28.471Z,22.90
2022-11-16T22:22:56.254Z,27.45
2022-11-16T22:25:24.038Z,45.03
2022-11-16T22:28:19.185Z,28.55
2022-11-16T22:30:39.305Z,23.80
2022-11-16T22:33:06.890Z,29.92
2022-11-16T22:35:38.085Z,29.50
2022-11-16T22:38:06.484Z,32.17
2022-11-16T22:40:34.157Z,19.15
2022-11-16T22:43:01.813Z,17.63
2022-11-16T22:45:29.775Z,21.45
2022-11-16T22:47:57.773Z,21.52
2022-11-16T22:50:25.570Z,19.67
2022-11-16T22:52:53.626Z,22.80
2022-11-16T22:55:21.370Z,17.30
2022-11-16T22:57:49.004Z,21.13
2022-11-16T23:00:17.964Z,23.95
2022-11-16T23:02:45.647Z,23.40
2022-11-16T23:05:13.441Z,20.98
2022-11-16T23:07:44.099Z,16.17
2022-11-16T23:10:11.785Z,19.27
2022-11-16T23:12:57.873Z,24.17
2022-11-16T23:15:43.881Z,23.65
2022-11-16T23:18:11.782Z,29.30
2022-11-16T23:21:18.629Z,27.00
2022-11-16T23:24:24.303Z,24.13
2022-11-16T23:27:18.226Z,18.17
2022-11-16T23:29:45.806Z,17.17
2022-11-16T23:32:13.606Z,16.92
2022-11-16T23:34:41.621Z,18.55
2022-11-16T23:37:09.391Z,17.75
2022-11-16T23:39:37.216Z,17.48
2022-11-16T23:42:23.340Z,21.08
2022-11-16T23:44:50.925Z,18.27
2022-11-16T23:47:18.527Z,16.70
2022-11-16T23:49:46.107Z,16.02
2022-11-16T23:52:14.211Z,16.85
2022-11-16T23:54:41.789Z,17.50
2022-11-16T23:57:10.393Z,18.73
2022-11-16T23:59:38.270Z,20.55
